sensor_id;sensor_type;location;lat;lon;timestamp;P1;durP1;ratioP1;P2;durP2;ratioP2
72920;SDS011;61064;51.654;5.476;2023-07-16T00:00:22;8.50;;;1.47;;
72920;SDS011;61064;51.654;5.476;2023-07-16T00:02:47;7.37;;;1.67;;
72920;SDS011;61064;51.654;5.476;2023-07-16T00:05:13;8.57;;;1.48;;
72920;SDS011;61064;51.654;5.476;2023-07-16T00:07:38;6.67;;;1.30;;
72920;SDS011;61064;51.654;5.476;2023-07-16T00:10:04;6.70;;;1.30;;
72920;SDS011;61064;51.654;5.476;2023-07-16T00:12:29;10.65;;;1.77;;
72920;SDS011;61064;51.654;5.476;2023-07-16T00:14:55;7.10;;;1.50;;
72920;SDS011;61064;51.654;5.476;2023-07-16T00:17:22;7.22;;;1.33;;
72920;SDS011;61064;51.654;5.476;2023-07-16T00:19:48;9.52;;;1.73;;
72920;SDS011;61064;51.654;5.476;2023-07-16T00:22:14;9.10;;;1.50;;
72920;SDS011;61064;51.654;5.476;2023-07-16T00:24:39;9.33;;;1.40;;
72920;SDS011;61064;51.654;5.476;2023-07-16T00:27:04;7.93;;;1.47;;
72920;SDS011;61064;51.654;5.476;2023-07-16T00:29:30;9.93;;;1.73;;
72920;SDS011;61064;51.654;5.476;2023-07-16T00:31:55;10.20;;;1.60;;
72920;SDS011;61064;51.654;5.476;2023-07-16T00:34:21;7.50;;;1.50;;
72920;SDS011;61064;51.654;5.476;2023-07-16T00:36:46;8.23;;;1.33;;
72920;SDS011;61064;51.654;5.476;2023-07-16T00:39:12;9.13;;;1.50;;
72920;SDS011;61064;51.654;5.476;2023-07-16T00:41:37;8.75;;;1.50;;
72920;SDS011;61064;51.654;5.476;2023-07-16T00:44:02;7.37;;;1.30;;
72920;SDS011;61064;51.654;5.476;2023-07-16T00:46:28;9.27;;;2.47;;
72920;SDS011;61064;51.654;5.476;2023-07-16T00:48:53;8.50;;;1.47;;
72920;SDS011;61064;51.654;5.476;2023-07-16T00:51:19;9.95;;;1.65;;
72920;SDS011;61064;51.654;5.476;2023-07-16T00:53:47;9.48;;;1.45;;
72920;SDS011;61064;51.654;5.476;2023-07-16T00:56:14;9.43;;;1.57;;
72920;SDS011;61064;51.654;5.476;2023-07-16T00:58:42;9.68;;;1.55;;
72920;SDS011;61064;51.654;5.476;2023-07-16T01:01:08;6.83;;;1.43;;
72920;SDS011;61064;51.654;5.476;2023-07-16T01:03:33;6.53;;;1.47;;
72920;SDS011;61064;51.654;5.476;2023-07-16T01:08:56;8.82;;;1.58;;
72920;SDS011;61064;51.654;5.476;2023-07-16T01:11:26;9.18;;;1.45;;
72920;SDS011;61064;51.654;5.476;2023-07-16T01:13:52;7.43;;;1.47;;
72920;SDS011;61064;51.654;5.476;2023-07-16T01:16:19;8.32;;;1.40;;
72920;SDS011;61064;51.654;5.476;2023-07-16T01:18:46;8.15;;;1.67;;
72920;SDS011;61064;51.654;5.476;2023-07-16T01:21:11;8.13;;;1.60;;
72920;SDS011;61064;51.654;5.476;2023-07-16T01:29:37;8.82;;;1.52;;
72920;SDS011;61064;51.654;5.476;2023-07-16T01:32:11;8.90;;;1.40;;
72920;SDS011;61064;51.654;5.476;2023-07-16T01:34:38;7.05;;;1.20;;
72920;SDS011;61064;51.654;5.476;2023-07-16T01:37:05;8.27;;;1.60;;
72920;SDS011;61064;51.654;5.476;2023-07-16T01:39:30;8.73;;;1.70;;
72920;SDS011;61064;51.654;5.476;2023-07-16T01:41:57;8.45;;;1.77;;
72920;SDS011;61064;51.654;5.476;2023-07-16T01:44:23;8.73;;;1.47;;
72920;SDS011;61064;51.654;5.476;2023-07-16T01:46:53;8.87;;;1.63;;
72920;SDS011;61064;51.654;5.476;2023-07-16T01:49:30;7.38;;;1.70;;
72920;SDS011;61064;51.654;5.476;2023-07-16T01:51:56;7.90;;;1.70;;
72920;SDS011;61064;51.654;5.476;2023-07-16T01:54:21;8.43;;;1.40;;
72920;SDS011;61064;51.654;5.476;2023-07-16T01:56:46;9.77;;;1.83;;
72920;SDS011;61064;51.654;5.476;2023-07-16T01:59:12;7.50;;;1.40;;
72920;SDS011;61064;51.654;5.476;2023-07-16T02:01:38;7.93;;;1.33;;
72920;SDS011;61064;51.654;5.476;2023-07-16T02:04:04;8.65;;;1.60;;
72920;SDS011;61064;51.654;5.476;2023-07-16T02:06:29;8.40;;;1.47;;
72920;SDS011;61064;51.654;5.476;2023-07-16T02:08:55;7.33;;;1.50;;
72920;SDS011;61064;51.654;5.476;2023-07-16T02:11:20;8.45;;;1.50;;
72920;SDS011;61064;51.654;5.476;2023-07-16T02:13:45;10.77;;;1.70;;
72920;SDS011;61064;51.654;5.476;2023-07-16T02:16:11;10.00;;;1.70;;
72920;SDS011;61064;51.654;5.476;2023-07-16T02:18:36;10.23;;;1.60;;
72920;SDS011;61064;51.654;5.476;2023-07-16T02:21:01;6.10;;;1.30;;
72920;SDS011;61064;51.654;5.476;2023-07-16T02:23:27;9.23;;;1.93;;
72920;SDS011;61064;51.654;5.476;2023-07-16T02:25:53;10.00;;;1.58;;
72920;SDS011;61064;51.654;5.476;2023-07-16T02:28:18;8.53;;;1.60;;
72920;SDS011;61064;51.654;5.476;2023-07-16T02:30:43;8.33;;;1.70;;
72920;SDS011;61064;51.654;5.476;2023-07-16T02:33:09;10.57;;;1.90;;
72920;SDS011;61064;51.654;5.476;2023-07-16T02:35:34;10.10;;;1.90;;
72920;SDS011;61064;51.654;5.476;2023-07-16T02:37:59;8.73;;;1.70;;
72920;SDS011;61064;51.654;5.476;2023-07-16T02:40:25;7.70;;;1.63;;
72920;SDS011;61064;51.654;5.476;2023-07-16T02:42:50;7.97;;;1.80;;
72920;SDS011;61064;51.654;5.476;2023-07-16T02:45:15;9.37;;;1.70;;
72920;SDS011;61064;51.654;5.476;2023-07-16T02:47:41;9.13;;;1.98;;
72920;SDS011;61064;51.654;5.476;2023-07-16T02:50:06;9.67;;;2.00;;
72920;SDS011;61064;51.654;5.476;2023-07-16T02:52:32;8.87;;;1.80;;
72920;SDS011;61064;51.654;5.476;2023-07-16T02:54:57;9.13;;;1.90;;
72920;SDS011;61064;51.654;5.476;2023-07-16T02:57:23;7.65;;;1.67;;
72920;SDS011;61064;51.654;5.476;2023-07-16T02:59:48;9.63;;;1.80;;
72920;SDS011;61064;51.654;5.476;2023-07-16T03:02:13;8.57;;;1.90;;
72920;SDS011;61064;51.654;5.476;2023-07-16T03:04:39;7.03;;;1.87;;
72920;SDS011;61064;51.654;5.476;2023-07-16T03:07:04;12.13;;;2.10;;
72920;SDS011;61064;51.654;5.476;2023-07-16T03:09:30;9.25;;;2.00;;
72920;SDS011;61064;51.654;5.476;2023-07-16T03:11:55;10.70;;;1.80;;
72920;SDS011;61064;51.654;5.476;2023-07-16T03:14:21;8.97;;;1.93;;
72920;SDS011;61064;51.654;5.476;2023-07-16T03:16:46;12.45;;;1.95;;
72920;SDS011;61064;51.654;5.476;2023-07-16T03:19:12;9.37;;;1.87;;
72920;SDS011;61064;51.654;5.476;2023-07-16T03:21:37;11.73;;;1.90;;
72920;SDS011;61064;51.654;5.476;2023-07-16T03:24:03;8.43;;;1.83;;
72920;SDS011;61064;51.654;5.476;2023-07-16T03:26:28;12.83;;;2.20;;
72920;SDS011;61064;51.654;5.476;2023-07-16T03:28:54;11.07;;;2.20;;
72920;SDS011;61064;51.654;5.476;2023-07-16T03:31:20;9.90;;;1.90;;
72920;SDS011;61064;51.654;5.476;2023-07-16T03:33:45;7.77;;;2.00;;
72920;SDS011;61064;51.654;5.476;2023-07-16T03:36:11;7.43;;;1.90;;
72920;SDS011;61064;51.654;5.476;2023-07-16T03:38:36;6.60;;;2.10;;
72920;SDS011;61064;51.654;5.476;2023-07-16T03:41:02;9.50;;;2.40;;
72920;SDS011;61064;51.654;5.476;2023-07-16T03:43:27;8.10;;;2.13;;
72920;SDS011;61064;51.654;5.476;2023-07-16T03:45:52;7.60;;;2.10;;
72920;SDS011;61064;51.654;5.476;2023-07-16T03:48:18;9.63;;;2.00;;
72920;SDS011;61064;51.654;5.476;2023-07-16T03:50:43;12.07;;;2.67;;
72920;SDS011;61064;51.654;5.476;2023-07-16T03:53:09;9.20;;;2.23;;
72920;SDS011;61064;51.654;5.476;2023-07-16T03:55:34;11.07;;;2.75;;
72920;SDS011;61064;51.654;5.476;2023-07-16T03:58:00;9.93;;;2.70;;
72920;SDS011;61064;51.654;5.476;2023-07-16T04:00:26;7.17;;;2.30;;
72920;SDS011;61064;51.654;5.476;2023-07-16T04:02:53;6.90;;;1.97;;
72920;SDS011;61064;51.654;5.476;2023-07-16T04:05:19;10.52;;;2.67;;
72920;SDS011;61064;51.654;5.476;2023-07-16T04:07:44;8.80;;;2.47;;
72920;SDS011;61064;51.654;5.476;2023-07-16T04:10:09;11.30;;;2.50;;
72920;SDS011;61064;51.654;5.476;2023-07-16T04:12:35;13.17;;;2.50;;
72920;SDS011;61064;51.654;5.476;2023-07-16T04:15:00;8.97;;;2.37;;
72920;SDS011;61064;51.654;5.476;2023-07-16T04:17:26;12.23;;;2.60;;
72920;SDS011;61064;51.654;5.476;2023-07-16T04:19:51;7.87;;;2.10;;
72920;SDS011;61064;51.654;5.476;2023-07-16T04:22:17;12.98;;;2.60;;
72920;SDS011;61064;51.654;5.476;2023-07-16T04:24:42;10.50;;;2.20;;
72920;SDS011;61064;51.654;5.476;2023-07-16T04:27:08;7.83;;;2.40;;
72920;SDS011;61064;51.654;5.476;2023-07-16T04:29:33;10.63;;;2.40;;
72920;SDS011;61064;51.654;5.476;2023-07-16T04:32:02;7.47;;;2.20;;
72920;SDS011;61064;51.654;5.476;2023-07-16T04:34:28;12.07;;;2.35;;
72920;SDS011;61064;51.654;5.476;2023-07-16T04:36:53;9.47;;;2.40;;
72920;SDS011;61064;51.654;5.476;2023-07-16T04:39:18;9.20;;;2.43;;
72920;SDS011;61064;51.654;5.476;2023-07-16T04:41:44;9.90;;;2.43;;
72920;SDS011;61064;51.654;5.476;2023-07-16T04:44:09;12.93;;;2.85;;
72920;SDS011;61064;51.654;5.476;2023-07-16T04:46:34;10.00;;;2.23;;
72920;SDS011;61064;51.654;5.476;2023-07-16T04:49:01;9.47;;;2.80;;
72920;SDS011;61064;51.654;5.476;2023-07-16T04:51:26;12.15;;;2.80;;
72920;SDS011;61064;51.654;5.476;2023-07-16T04:53:52;9.93;;;2.40;;
72920;SDS011;61064;51.654;5.476;2023-07-16T04:56:17;9.03;;;2.20;;
72920;SDS011;61064;51.654;5.476;2023-07-16T04:58:42;11.10;;;2.60;;
72920;SDS011;61064;51.654;5.476;2023-07-16T05:01:09;8.40;;;2.58;;
72920;SDS011;61064;51.654;5.476;2023-07-16T05:03:37;8.73;;;2.60;;
72920;SDS011;61064;51.654;5.476;2023-07-16T05:06:03;8.73;;;2.70;;
72920;SDS011;61064;51.654;5.476;2023-07-16T05:08:29;11.43;;;3.10;;
72920;SDS011;61064;51.654;5.476;2023-07-16T05:10:54;9.23;;;2.45;;
72920;SDS011;61064;51.654;5.476;2023-07-16T05:13:19;10.30;;;2.80;;
72920;SDS011;61064;51.654;5.476;2023-07-16T05:15:45;9.83;;;3.07;;
72920;SDS011;61064;51.654;5.476;2023-07-16T05:18:10;7.93;;;3.20;;
72920;SDS011;61064;51.654;5.476;2023-07-16T05:20:36;9.20;;;2.33;;
72920;SDS011;61064;51.654;5.476;2023-07-16T05:23:01;9.18;;;2.88;;
72920;SDS011;61064;51.654;5.476;2023-07-16T05:25:27;9.57;;;2.60;;
72920;SDS011;61064;51.654;5.476;2023-07-16T05:27:52;10.43;;;3.00;;
72920;SDS011;61064;51.654;5.476;2023-07-16T05:30:17;11.87;;;3.10;;
72920;SDS011;61064;51.654;5.476;2023-07-16T05:32:43;9.45;;;3.15;;
72920;SDS011;61064;51.654;5.476;2023-07-16T05:35:08;9.83;;;3.03;;
72920;SDS011;61064;51.654;5.476;2023-07-16T05:37:34;10.23;;;2.60;;
72920;SDS011;61064;51.654;5.476;2023-07-16T05:39:59;11.20;;;3.00;;
72920;SDS011;61064;51.654;5.476;2023-07-16T05:42:24;10.20;;;3.00;;
72920;SDS011;61064;51.654;5.476;2023-07-16T05:44:50;9.50;;;2.93;;
72920;SDS011;61064;51.654;5.476;2023-07-16T05:47:15;13.10;;;3.00;;
72920;SDS011;61064;51.654;5.476;2023-07-16T05:49:41;10.70;;;3.13;;
72920;SDS011;61064;51.654;5.476;2023-07-16T05:52:06;13.63;;;3.30;;
72920;SDS011;61064;51.654;5.476;2023-07-16T05:54:32;11.27;;;2.95;;
72920;SDS011;61064;51.654;5.476;2023-07-16T05:56:57;9.30;;;3.10;;
72920;SDS011;61064;51.654;5.476;2023-07-16T05:59:23;11.50;;;3.57;;
72920;SDS011;61064;51.654;5.476;2023-07-16T06:01:48;8.43;;;3.22;;
72920;SDS011;61064;51.654;5.476;2023-07-16T06:04:13;11.33;;;3.43;;
72920;SDS011;61064;51.654;5.476;2023-07-16T06:06:39;11.23;;;3.17;;
72920;SDS011;61064;51.654;5.476;2023-07-16T06:09:04;11.37;;;3.40;;
72920;SDS011;61064;51.654;5.476;2023-07-16T06:11:29;11.87;;;3.40;;
72920;SDS011;61064;51.654;5.476;2023-07-16T06:13:55;10.10;;;3.10;;
72920;SDS011;61064;51.654;5.476;2023-07-16T06:16:21;8.63;;;3.33;;
72920;SDS011;61064;51.654;5.476;2023-07-16T06:18:46;12.32;;;3.17;;
72920;SDS011;61064;51.654;5.476;2023-07-16T06:21:12;10.97;;;2.90;;
72920;SDS011;61064;51.654;5.476;2023-07-16T06:23:37;11.50;;;3.20;;
72920;SDS011;61064;51.654;5.476;2023-07-16T06:26:03;10.75;;;3.40;;
72920;SDS011;61064;51.654;5.476;2023-07-16T06:28:28;9.07;;;3.20;;
72920;SDS011;61064;51.654;5.476;2023-07-16T06:30:54;12.40;;;3.23;;
72920;SDS011;61064;51.654;5.476;2023-07-16T06:33:19;14.60;;;3.50;;
72920;SDS011;61064;51.654;5.476;2023-07-16T06:35:45;11.02;;;3.20;;
72920;SDS011;61064;51.654;5.476;2023-07-16T06:38:12;12.02;;;3.63;;
72920;SDS011;61064;51.654;5.476;2023-07-16T06:40:38;11.97;;;3.47;;
72920;SDS011;61064;51.654;5.476;2023-07-16T06:43:04;14.85;;;3.90;;
72920;SDS011;61064;51.654;5.476;2023-07-16T06:45:29;12.43;;;3.20;;
72920;SDS011;61064;51.654;5.476;2023-07-16T06:47:54;11.87;;;3.33;;
72920;SDS011;61064;51.654;5.476;2023-07-16T06:50:20;12.93;;;3.70;;
72920;SDS011;61064;51.654;5.476;2023-07-16T06:52:45;12.60;;;4.07;;
72920;SDS011;61064;51.654;5.476;2023-07-16T06:55:10;17.17;;;3.80;;
72920;SDS011;61064;51.654;5.476;2023-07-16T06:57:36;9.73;;;3.53;;
72920;SDS011;61064;51.654;5.476;2023-07-16T07:00:01;15.13;;;3.77;;
72920;SDS011;61064;51.654;5.476;2023-07-16T07:02:27;10.15;;;3.50;;
72920;SDS011;61064;51.654;5.476;2023-07-16T07:04:53;11.90;;;3.60;;
72920;SDS011;61064;51.654;5.476;2023-07-16T07:07:18;13.00;;;4.10;;
72920;SDS011;61064;51.654;5.476;2023-07-16T07:09:47;14.30;;;4.07;;
72920;SDS011;61064;51.654;5.476;2023-07-16T07:12:13;11.60;;;3.60;;
72920;SDS011;61064;51.654;5.476;2023-07-16T07:14:39;11.10;;;3.97;;
72920;SDS011;61064;51.654;5.476;2023-07-16T07:17:04;12.03;;;3.70;;
72920;SDS011;61064;51.654;5.476;2023-07-16T07:19:30;11.53;;;3.80;;
72920;SDS011;61064;51.654;5.476;2023-07-16T07:21:57;13.68;;;3.75;;
72920;SDS011;61064;51.654;5.476;2023-07-16T07:24:22;11.85;;;4.00;;
72920;SDS011;61064;51.654;5.476;2023-07-16T07:26:48;11.97;;;3.40;;
72920;SDS011;61064;51.654;5.476;2023-07-16T07:29:13;10.80;;;4.00;;
72920;SDS011;61064;51.654;5.476;2023-07-16T07:31:39;11.65;;;3.75;;
72920;SDS011;61064;51.654;5.476;2023-07-16T07:34:04;12.93;;;4.13;;
72920;SDS011;61064;51.654;5.476;2023-07-16T07:36:30;11.97;;;3.77;;
72920;SDS011;61064;51.654;5.476;2023-07-16T07:38:55;11.17;;;3.60;;
72920;SDS011;61064;51.654;5.476;2023-07-16T07:41:20;16.10;;;4.30;;
72920;SDS011;61064;51.654;5.476;2023-07-16T07:43:46;13.80;;;4.13;;
72920;SDS011;61064;51.654;5.476;2023-07-16T07:46:11;11.47;;;3.60;;
72920;SDS011;61064;51.654;5.476;2023-07-16T07:48:37;12.13;;;3.90;;
72920;SDS011;61064;51.654;5.476;2023-07-16T07:51:02;13.37;;;4.10;;
72920;SDS011;61064;51.654;5.476;2023-07-16T07:53:29;11.23;;;4.22;;
72920;SDS011;61064;51.654;5.476;2023-07-16T07:55:54;12.27;;;4.07;;
72920;SDS011;61064;51.654;5.476;2023-07-16T07:58:20;11.43;;;3.70;;
72920;SDS011;61064;51.654;5.476;2023-07-16T08:00:45;13.05;;;4.03;;
72920;SDS011;61064;51.654;5.476;2023-07-16T08:03:10;9.90;;;3.40;;
72920;SDS011;61064;51.654;5.476;2023-07-16T08:05:36;12.30;;;4.03;;
72920;SDS011;61064;51.654;5.476;2023-07-16T08:08:01;11.33;;;4.10;;
72920;SDS011;61064;51.654;5.476;2023-07-16T08:10:27;12.40;;;3.87;;
72920;SDS011;61064;51.654;5.476;2023-07-16T08:12:52;12.32;;;4.10;;
72920;SDS011;61064;51.654;5.476;2023-07-16T08:15:17;12.23;;;3.83;;
72920;SDS011;61064;51.654;5.476;2023-07-16T08:17:43;11.87;;;3.70;;
72920;SDS011;61064;51.654;5.476;2023-07-16T08:20:10;11.98;;;3.50;;
72920;SDS011;61064;51.654;5.476;2023-07-16T08:22:37;9.65;;;3.50;;
72920;SDS011;61064;51.654;5.476;2023-07-16T08:25:02;11.20;;;3.50;;
72920;SDS011;61064;51.654;5.476;2023-07-16T08:27:29;10.37;;;3.60;;
72920;SDS011;61064;51.654;5.476;2023-07-16T08:29:54;12.68;;;4.10;;
72920;SDS011;61064;51.654;5.476;2023-07-16T08:32:20;10.50;;;3.70;;
72920;SDS011;61064;51.654;5.476;2023-07-16T08:34:46;10.38;;;3.20;;
72920;SDS011;61064;51.654;5.476;2023-07-16T08:37:11;11.83;;;4.10;;
72920;SDS011;61064;51.654;5.476;2023-07-16T08:39:36;11.10;;;4.03;;
72920;SDS011;61064;51.654;5.476;2023-07-16T08:42:02;12.40;;;3.53;;
72920;SDS011;61064;51.654;5.476;2023-07-16T08:44:28;11.50;;;3.90;;
72920;SDS011;61064;51.654;5.476;2023-07-16T08:46:54;10.85;;;3.53;;
72920;SDS011;61064;51.654;5.476;2023-07-16T08:49:19;12.83;;;3.80;;
72920;SDS011;61064;51.654;5.476;2023-07-16T08:51:47;10.18;;;3.50;;
72920;SDS011;61064;51.654;5.476;2023-07-16T08:54:13;11.48;;;3.40;;
72920;SDS011;61064;51.654;5.476;2023-07-16T08:56:43;12.48;;;3.67;;
72920;SDS011;61064;51.654;5.476;2023-07-16T08:59:09;10.07;;;3.57;;
72920;SDS011;61064;51.654;5.476;2023-07-16T09:01:35;10.98;;;3.17;;
72920;SDS011;61064;51.654;5.476;2023-07-16T09:04:02;10.43;;;3.70;;
72920;SDS011;61064;51.654;5.476;2023-07-16T09:06:27;11.03;;;3.77;;
72920;SDS011;61064;51.654;5.476;2023-07-16T09:08:52;12.03;;;3.47;;
72920;SDS011;61064;51.654;5.476;2023-07-16T09:11:18;13.05;;;3.53;;
72920;SDS011;61064;51.654;5.476;2023-07-16T09:13:46;9.97;;;3.10;;
72920;SDS011;61064;51.654;5.476;2023-07-16T09:16:12;9.95;;;3.10;;
72920;SDS011;61064;51.654;5.476;2023-07-16T09:18:41;10.15;;;3.40;;
72920;SDS011;61064;51.654;5.476;2023-07-16T09:21:06;9.23;;;3.17;;
72920;SDS011;61064;51.654;5.476;2023-07-16T09:23:32;11.73;;;3.37;;
72920;SDS011;61064;51.654;5.476;2023-07-16T09:25:58;8.98;;;2.95;;
72920;SDS011;61064;51.654;5.476;2023-07-16T09:28:23;12.67;;;3.80;;
72920;SDS011;61064;51.654;5.476;2023-07-16T09:30:50;11.82;;;3.33;;
72920;SDS011;61064;51.654;5.476;2023-07-16T09:33:17;10.77;;;3.30;;
72920;SDS011;61064;51.654;5.476;2023-07-16T09:35:44;11.73;;;3.67;;
72920;SDS011;61064;51.654;5.476;2023-07-16T09:38:13;11.57;;;3.53;;
72920;SDS011;61064;51.654;5.476;2023-07-16T09:40:39;12.20;;;3.63;;
72920;SDS011;61064;51.654;5.476;2023-07-16T09:43:07;13.10;;;3.50;;
72920;SDS011;61064;51.654;5.476;2023-07-16T09:45:33;11.90;;;3.40;;
72920;SDS011;61064;51.654;5.476;2023-07-16T09:47:58;11.17;;;3.67;;
72920;SDS011;61064;51.654;5.476;2023-07-16T09:50:24;9.57;;;3.40;;
72920;SDS011;61064;51.654;5.476;2023-07-16T09:52:53;11.65;;;3.80;;
72920;SDS011;61064;51.654;5.476;2023-07-16T09:55:21;14.88;;;3.85;;
72920;SDS011;61064;51.654;5.476;2023-07-16T09:57:48;9.93;;;3.47;;
72920;SDS011;61064;51.654;5.476;2023-07-16T10:00:16;11.52;;;3.80;;
72920;SDS011;61064;51.654;5.476;2023-07-16T10:02:43;11.47;;;4.00;;
72920;SDS011;61064;51.654;5.476;2023-07-16T10:07:51;9.52;;;3.38;;
72920;SDS011;61064;51.654;5.476;2023-07-16T10:10:19;13.57;;;3.80;;
72920;SDS011;61064;51.654;5.476;2023-07-16T10:12:55;12.07;;;3.50;;
72920;SDS011;61064;51.654;5.476;2023-07-16T10:15:25;11.57;;;3.57;;
72920;SDS011;61064;51.654;5.476;2023-07-16T10:17:52;11.68;;;3.65;;
72920;SDS011;61064;51.654;5.476;2023-07-16T10:20:40;9.85;;;3.20;;
72920;SDS011;61064;51.654;5.476;2023-07-16T10:23:17;9.80;;;3.65;;
72920;SDS011;61064;51.654;5.476;2023-07-16T10:25:59;11.00;;;3.40;;
72920;SDS011;61064;51.654;5.476;2023-07-16T10:28:25;11.80;;;3.13;;
72920;SDS011;61064;51.654;5.476;2023-07-16T10:30:54;10.13;;;3.45;;
72920;SDS011;61064;51.654;5.476;2023-07-16T10:33:20;10.27;;;3.17;;
72920;SDS011;61064;51.654;5.476;2023-07-16T10:35:45;10.30;;;3.10;;
72920;SDS011;61064;51.654;5.476;2023-07-16T10:38:11;12.35;;;3.50;;
72920;SDS011;61064;51.654;5.476;2023-07-16T10:40:43;9.50;;;3.07;;
72920;SDS011;61064;51.654;5.476;2023-07-16T10:43:10;10.40;;;2.97;;
72920;SDS011;61064;51.654;5.476;2023-07-16T10:45:36;10.05;;;3.13;;
72920;SDS011;61064;51.654;5.476;2023-07-16T10:48:02;10.87;;;3.40;;
72920;SDS011;61064;51.654;5.476;2023-07-16T10:50:27;10.50;;;2.97;;
72920;SDS011;61064;51.654;5.476;2023-07-16T10:52:56;10.40;;;3.13;;
72920;SDS011;61064;51.654;5.476;2023-07-16T10:55:22;9.50;;;3.20;;
72920;SDS011;61064;51.654;5.476;2023-07-16T10:57:48;7.43;;;2.63;;
72920;SDS011;61064;51.654;5.476;2023-07-16T11:00:18;10.02;;;2.88;;
72920;SDS011;61064;51.654;5.476;2023-07-16T11:02:44;8.23;;;2.70;;
72920;SDS011;61064;51.654;5.476;2023-07-16T11:05:10;8.75;;;2.83;;
72920;SDS011;61064;51.654;5.476;2023-07-16T11:07:36;12.18;;;2.92;;
72920;SDS011;61064;51.654;5.476;2023-07-16T11:10:02;9.53;;;3.03;;
72920;SDS011;61064;51.654;5.476;2023-07-16T11:12:28;9.10;;;2.90;;
72920;SDS011;61064;51.654;5.476;2023-07-16T11:14:54;10.90;;;2.80;;
72920;SDS011;61064;51.654;5.476;2023-07-16T11:17:21;8.50;;;2.72;;
72920;SDS011;61064;51.654;5.476;2023-07-16T11:19:50;12.30;;;3.10;;
72920;SDS011;61064;51.654;5.476;2023-07-16T11:22:24;9.00;;;2.80;;
72920;SDS011;61064;51.654;5.476;2023-07-16T11:24:54;9.55;;;2.85;;
72920;SDS011;61064;51.654;5.476;2023-07-16T11:27:23;9.33;;;2.90;;
72920;SDS011;61064;51.654;5.476;2023-07-16T11:29:52;10.70;;;2.97;;
72920;SDS011;61064;51.654;5.476;2023-07-16T11:32:35;9.07;;;2.75;;
72920;SDS011;61064;51.654;5.476;2023-07-16T11:35:22;10.82;;;2.90;;
72920;SDS011;61064;51.654;5.476;2023-07-16T11:37:48;9.98;;;3.22;;
72920;SDS011;61064;51.654;5.476;2023-07-16T11:40:17;7.43;;;2.63;;
72920;SDS011;61064;51.654;5.476;2023-07-16T11:42:45;10.45;;;3.00;;
72920;SDS011;61064;51.654;5.476;2023-07-16T11:47:43;9.48;;;3.05;;
72920;SDS011;61064;51.654;5.476;2023-07-16T11:50:12;11.57;;;3.13;;
72920;SDS011;61064;51.654;5.476;2023-07-16T11:52:38;8.82;;;3.17;;
72920;SDS011;61064;51.654;5.476;2023-07-16T11:55:04;9.30;;;2.88;;
72920;SDS011;61064;51.654;5.476;2023-07-16T11:57:30;9.73;;;3.00;;
72920;SDS011;61064;51.654;5.476;2023-07-16T11:59:55;8.87;;;2.63;;
72920;SDS011;61064;51.654;5.476;2023-07-16T12:02:21;7.73;;;2.50;;
72920;SDS011;61064;51.654;5.476;2023-07-16T12:04:47;7.93;;;3.00;;
72920;SDS011;61064;51.654;5.476;2023-07-16T12:07:13;10.20;;;3.17;;
72920;SDS011;61064;51.654;5.476;2023-07-16T12:09:39;11.10;;;4.03;;
72920;SDS011;61064;51.654;5.476;2023-07-16T12:12:05;9.32;;;3.53;;
72920;SDS011;61064;51.654;5.476;2023-07-16T12:14:31;11.63;;;3.87;;
72920;SDS011;61064;51.654;5.476;2023-07-16T12:16:56;11.73;;;3.58;;
72920;SDS011;61064;51.654;5.476;2023-07-16T12:19:24;12.23;;;3.30;;
72920;SDS011;61064;51.654;5.476;2023-07-16T12:21:49;10.63;;;3.80;;
72920;SDS011;61064;51.654;5.476;2023-07-16T12:24:18;9.90;;;3.53;;
72920;SDS011;61064;51.654;5.476;2023-07-16T12:26:46;10.95;;;3.83;;
72920;SDS011;61064;51.654;5.476;2023-07-16T12:29:11;8.23;;;3.40;;
72920;SDS011;61064;51.654;5.476;2023-07-16T12:31:37;9.33;;;3.57;;
72920;SDS011;61064;51.654;5.476;2023-07-16T12:34:02;8.87;;;3.37;;
72920;SDS011;61064;51.654;5.476;2023-07-16T12:36:29;10.48;;;3.53;;
72920;SDS011;61064;51.654;5.476;2023-07-16T12:38:54;11.18;;;3.28;;
72920;SDS011;61064;51.654;5.476;2023-07-16T12:41:26;8.83;;;3.00;;
72920;SDS011;61064;51.654;5.476;2023-07-16T12:43:51;10.10;;;3.47;;
72920;SDS011;61064;51.654;5.476;2023-07-16T12:46:17;9.30;;;3.00;;
72920;SDS011;61064;51.654;5.476;2023-07-16T12:48:42;9.77;;;3.00;;
72920;SDS011;61064;51.654;5.476;2023-07-16T12:51:11;10.20;;;3.20;;
72920;SDS011;61064;51.654;5.476;2023-07-16T12:53:36;10.07;;;3.10;;
72920;SDS011;61064;51.654;5.476;2023-07-16T12:56:05;8.55;;;3.10;;
72920;SDS011;61064;51.654;5.476;2023-07-16T12:58:30;10.80;;;3.50;;
72920;SDS011;61064;51.654;5.476;2023-07-16T13:00:56;9.97;;;3.23;;
72920;SDS011;61064;51.654;5.476;2023-07-16T13:03:21;10.03;;;3.27;;
72920;SDS011;61064;51.654;5.476;2023-07-16T13:05:47;11.67;;;2.87;;
72920;SDS011;61064;51.654;5.476;2023-07-16T13:08:12;10.07;;;2.83;;
72920;SDS011;61064;51.654;5.476;2023-07-16T13:10:38;9.93;;;2.77;;
72920;SDS011;61064;51.654;5.476;2023-07-16T13:13:07;8.65;;;2.40;;
72920;SDS011;61064;51.654;5.476;2023-07-16T13:15:33;10.98;;;2.42;;
72920;SDS011;61064;51.654;5.476;2023-07-16T13:18:09;7.57;;;2.20;;
72920;SDS011;61064;51.654;5.476;2023-07-16T13:20:36;6.45;;;1.95;;
72920;SDS011;61064;51.654;5.476;2023-07-16T13:23:02;8.05;;;2.00;;
72920;SDS011;61064;51.654;5.476;2023-07-16T13:25:27;9.93;;;1.90;;
72920;SDS011;61064;51.654;5.476;2023-07-16T13:27:54;6.05;;;1.83;;
72920;SDS011;61064;51.654;5.476;2023-07-16T13:30:20;7.13;;;2.05;;
72920;SDS011;61064;51.654;5.476;2023-07-16T13:32:46;6.43;;;1.47;;
72920;SDS011;61064;51.654;5.476;2023-07-16T13:35:15;7.95;;;2.00;;
72920;SDS011;61064;51.654;5.476;2023-07-16T13:37:41;6.90;;;1.90;;
72920;SDS011;61064;51.654;5.476;2023-07-16T13:40:07;8.40;;;1.98;;
72920;SDS011;61064;51.654;5.476;2023-07-16T13:42:33;7.70;;;1.75;;
72920;SDS011;61064;51.654;5.476;2023-07-16T13:44:59;6.77;;;1.90;;
72920;SDS011;61064;51.654;5.476;2023-07-16T13:47:24;6.90;;;2.00;;
72920;SDS011;61064;51.654;5.476;2023-07-16T13:49:50;9.13;;;2.07;;
72920;SDS011;61064;51.654;5.476;2023-07-16T13:52:16;9.70;;;1.95;;
72920;SDS011;61064;51.654;5.476;2023-07-16T13:54:41;6.33;;;1.60;;
72920;SDS011;61064;51.654;5.476;2023-07-16T13:57:07;7.00;;;1.77;;
72920;SDS011;61064;51.654;5.476;2023-07-16T13:59:33;7.00;;;1.90;;
72920;SDS011;61064;51.654;5.476;2023-07-16T14:01:59;6.57;;;1.60;;
72920;SDS011;61064;51.654;5.476;2023-07-16T14:04:27;6.85;;;1.80;;
72920;SDS011;61064;51.654;5.476;2023-07-16T14:06:53;6.23;;;1.90;;
72920;SDS011;61064;51.654;5.476;2023-07-16T14:09:18;8.02;;;1.80;;
72920;SDS011;61064;51.654;5.476;2023-07-16T14:11:44;7.82;;;1.70;;
72920;SDS011;61064;51.654;5.476;2023-07-16T14:14:12;7.93;;;1.90;;
72920;SDS011;61064;51.654;5.476;2023-07-16T14:16:43;6.88;;;1.90;;
72920;SDS011;61064;51.654;5.476;2023-07-16T14:19:09;7.70;;;1.60;;
72920;SDS011;61064;51.654;5.476;2023-07-16T14:21:38;6.65;;;1.80;;
72920;SDS011;61064;51.654;5.476;2023-07-16T14:24:04;8.82;;;1.88;;
72920;SDS011;61064;51.654;5.476;2023-07-16T14:26:30;7.40;;;1.90;;
72920;SDS011;61064;51.654;5.476;2023-07-16T14:28:55;5.82;;;1.70;;
72920;SDS011;61064;51.654;5.476;2023-07-16T14:31:21;5.97;;;1.80;;
72920;SDS011;61064;51.654;5.476;2023-07-16T14:33:49;6.65;;;1.80;;
72920;SDS011;61064;51.654;5.476;2023-07-16T14:36:15;7.10;;;1.98;;
72920;SDS011;61064;51.654;5.476;2023-07-16T14:38:41;7.03;;;1.90;;
72920;SDS011;61064;51.654;5.476;2023-07-16T14:41:07;7.25;;;2.15;;
72920;SDS011;61064;51.654;5.476;2023-07-16T14:43:33;7.18;;;1.75;;
72920;SDS011;61064;51.654;5.476;2023-07-16T14:45:59;6.37;;;1.90;;
72920;SDS011;61064;51.654;5.476;2023-07-16T14:48:25;8.63;;;2.40;;